Fulton County Airport


Codes: KRCR/RCR
Name: Fulton County Airport
City: Rochester
Country: United States
Elevation: 790 ft.
Wikipedia:

Photos at Fulton County Airport


   Photos courtesy of SpottingLog. You can add your own sightings and photos by signing up for a free trial today.



No photos found.

Weather at Fulton County Airport


Time (UTC)DescriptionTempratureWindCloud coverageVisibilityPressureHumidity
21-Jun-2024 12:00Scattered Clouds23°C4 mph, W40%10000m1024hPa94%
21-Jun-2024 15:00Scattered Clouds25°C4 mph, W28%10000m1024hPa84%
21-Jun-2024 18:00Few Clouds29°C7 mph, W15%10000m1022hPa66%
21-Jun-2024 21:00Clear Sky32°C9 mph, SW1%10000m1019hPa47%
22-Jun-2024 00:00Clear Sky28°C7 mph, SW2%10000m1018hPa68%
22-Jun-2024 03:00Clear Sky25°C4 mph, SW3%10000m1018hPa69%
22-Jun-2024 06:00Clear Sky23°C4 mph, SW10%10000m1018hPa76%
22-Jun-2024 09:00Broken Clouds22°C7 mph, SW64%10000m1017hPa81%
22-Jun-2024 12:00Broken Clouds24°C7 mph, SW68%10000m1017hPa84%
22-Jun-2024 15:00Overcast Clouds28°C13 mph, SW100%10000m1016hPa64%
22-Jun-2024 18:00Overcast Clouds30°C16 mph, SW90%10000m1014hPa55%
22-Jun-2024 21:00Broken Clouds31°C16 mph, SW66%10000m1012hPa53%
23-Jun-2024 00:00Broken Clouds28°C13 mph, SW63%10000m1010hPa67%
23-Jun-2024 03:00Broken Clouds26°C16 mph, SW74%10000m1008hPa63%
23-Jun-2024 06:00Overcast Clouds26°C18 mph, SW86%10000m1007hPa62%
23-Jun-2024 09:00Light Rain22°C16 mph, SW100%10000m1006hPa88%
23-Jun-2024 12:00Moderate Rain22°C16 mph, SW100%10000m1006hPa97%
23-Jun-2024 15:00Light Rain22°C11 mph, NW97%10000m1007hPa89%
23-Jun-2024 18:00Overcast Clouds23°C13 mph, NW97%10000m1009hPa73%
23-Jun-2024 21:00Overcast Clouds25°C13 mph, NW92%10000m1008hPa68%
24-Jun-2024 00:00Broken Clouds22°C9 mph, NW60%10000m1009hPa78%
24-Jun-2024 03:00Clear Sky18°C7 mph, N0%10000m1011hPa92%
24-Jun-2024 06:00Clear Sky17°C2 mph, NW0%10000m1011hPa93%
24-Jun-2024 09:00Clear Sky17°C4 mph, W1%10000m1011hPa93%
24-Jun-2024 12:00Clear Sky19°C4 mph, SW7%10000m1012hPa88%
24-Jun-2024 15:00Clear Sky25°C7 mph, SW0%10000m1012hPa69%
24-Jun-2024 18:00Few Clouds28°C9 mph, SW24%10000m1011hPa57%
24-Jun-2024 21:00Clear Sky29°C11 mph, SW9%10000m1009hPa56%
25-Jun-2024 00:00Scattered Clouds27°C7 mph, SW32%10000m1009hPa77%
25-Jun-2024 03:00Light Rain24°C7 mph, S2%10000m1008hPa84%
25-Jun-2024 06:00Moderate Rain22°C4 mph, SW14%10000m1009hPa95%
25-Jun-2024 09:00Moderate Rain22°C7 mph, SW100%10000m1007hPa96%
25-Jun-2024 12:00Moderate Rain24°C4 mph, SW99%10000m1008hPa95%
25-Jun-2024 15:00Light Rain27°C13 mph, W100%10000m1008hPa83%
25-Jun-2024 18:00Overcast Clouds29°C16 mph, SW100%10000m1006hPa73%
25-Jun-2024 21:00Overcast Clouds32°C16 mph, SW100%10000m1005hPa65%
26-Jun-2024 00:00Moderate Rain21°C9 mph, NE100%1040m1006hPa95%
26-Jun-2024 03:00Moderate Rain21°C13 mph, W100%10000m1005hPa92%
26-Jun-2024 06:00Overcast Clouds22°C13 mph, SW100%10000m1004hPa74%
26-Jun-2024 09:00Overcast Clouds20°C9 mph, W95%10000m1005hPa96%